Orchid Ace — 7JDE — position and weather

sailwx.info

Track history (hours):
 
Tides and Currents Weather Stations Pressure Air Temp Water Temp Dewpoint Dewpoint Depression Visibility Wind Speed Wind Dir Waves Ship Positions

Orchid Ace

Last reported at 2015-Jul-01 00:30 UTC. Time now 2015-Jul-07 19:44 UTC.
Position N 24°32' W 079°57'.

Length 200 m; draft 7.6 m.

Type: Cargo ship. MMSI: 432651000.

Date/timePositionNaut miles runAvg speedWind from/ knotsBaromVisibWave heightAir tempDewpointWater temp
2015-Jul-01 00:30N 24°32' W 079°57'1213.0
2015-Jun-30 23:33N 24°39' W 079°45'6912.9
2015-Jun-30 18:11N 25°46' W 079°26'1117.1
2015-Jun-30 17:33N 25°57' W 079°24'1515.4
2015-Jun-30 16:33N 26°12' W 079°23'2713.3
2015-Jun-30 14:33N 26°38' W 079°21'1313.1
2015-Jun-30 13:33N 26°52' W 079°21'1312.9
2015-Jun-30 12:32N 27°05' W 079°19'1412.9
2015-Jun-30 11:26N 27°19' W 079°18'  
2015-Jun-27 18:33N 38°10' W 071°12'1818.0
2015-Jun-27 17:33N 38°21' W 071°30'1716.9
2015-Jun-27 16:34N 38°31' W 071°47'1414.0
2015-Jun-27 15:33N 38°39' W 072°01'1414.1
2015-Jun-27 14:33N 38°48' W 072°15'1414.3
2015-Jun-27 13:33N 38°57' W 072°30'1414.0
2015-Jun-27 12:33N 39°05' W 072°44'1414.0
2015-Jun-27 11:33N 39°14' W 072°59'1414.0
2015-Jun-27 10:34N 39°22' W 073°13'1414.1
2015-Jun-27 09:33N 39°31' W 073°27'1414.0
2015-Jun-27 08:33N 39°40' W 073°42'1312.7
2015-Jun-27 07:33N 39°50' W 073°51'1414.1
2015-Jun-27 06:33N 40°04' W 073°50'1414.1
2015-Jun-27 05:32N 40°19' W 073°49'1111.2
2015-Jun-27 04:33N 40°29' W 073°54'1211.8
2015-Jun-27 03:33N 40°38' W 074°03'4 4.4
2015-Jun-27 02:33N 40°41' W 074°08'1 0.7
2015-Jun-27 01:29N 40°42' W 074°08'0 0.0
2015-Jun-27 00:29N 40°42' W 074°08'0 0.0
2015-Jun-26 23:29N 40°42' W 074°08'0 0.0
2015-Jun-26 22:29N 40°42' W 074°08'0 0.0
2015-Jun-26 21:29N 40°42' W 074°08'0 0.0
2015-Jun-26 20:29N 40°42' W 074°08'0 0.0
2015-Jun-26 19:29N 40°42' W 074°08'0 0.0
2015-Jun-26 18:29N 40°42' W 074°08'0 0.0
2015-Jun-26 17:29N 40°42' W 074°08'0 0.0
2015-Jun-26 16:29N 40°42' W 074°08'2 1.6
2015-Jun-26 15:33N 40°40' W 074°08'5 4.6
2015-Jun-26 14:33N 40°38' W 074°03'1010.2
2015-Jun-26 13:33N 40°29' W 073°55'8 8.2
2015-Jun-26 12:33N 40°24' W 073°47'7 7.2
2015-Jun-26 11:32N 40°17' W 073°46'1616.7
2015-Jun-26 10:33N 40°00' W 073°43'1817.8
2015-Jun-26 09:33N 39°43' W 073°37'1715.8
2015-Jun-26 08:27N 39°26' W 073°39'8917.0
2015-Jun-26 03:14N 38°01' W 074°12'3 4.3
2015-Jun-26 02:33N 37°59' W 074°15'1818.3
2015-Jun-26 01:34N 37°41' W 074°20'1918.5
2015-Jun-26 00:33N 37°23' W 074°25'2118.2
2015-Jun-25 23:25N 37°02' W 074°25'169 5.8
2015-Jun-24 18:13N 34°27' W 075°47'1319.4
2015-Jun-24 17:32N 34°17' W 075°58'4318.7
2015-Jun-24 15:14N 33°46' W 076°34'1218.6
2015-Jun-24 14:33N 33°36' W 076°43'  
Track history (hours):
 
Tides and Currents Weather Stations Pressure Air Temp Water Temp Dewpoint Dewpoint Depression Visibility Wind Speed Wind Dir Waves Ship Positions

Orchid Ace

Last reported at 2015-Jul-01 00:30 UTC. Time now 2015-Jul-07 19:44 UTC.
Position N 24°32' W 079°57'.

Length 200 m; draft 7.6 m.

Type: Cargo ship. MMSI: 432651000.

Date/timePositionNaut miles runAvg speedWind from/ knotsBaromVisibWave heightAir tempDewpointWater temp
2015-Jul-01 00:30N 24°32' W 079°57'1213.0
2015-Jun-30 23:33N 24°39' W 079°45'6912.9
2015-Jun-30 18:11N 25°46' W 079°26'1117.1
2015-Jun-30 17:33N 25°57' W 079°24'1515.4
2015-Jun-30 16:33N 26°12' W 079°23'2713.3
2015-Jun-30 14:33N 26°38' W 079°21'1313.1
2015-Jun-30 13:33N 26°52' W 079°21'1312.9
2015-Jun-30 12:32N 27°05' W 079°19'1412.9
2015-Jun-30 11:26N 27°19' W 079°18'  
2015-Jun-27 18:33N 38°10' W 071°12'1818.0
2015-Jun-27 17:33N 38°21' W 071°30'1716.9
2015-Jun-27 16:34N 38°31' W 071°47'1414.0
2015-Jun-27 15:33N 38°39' W 072°01'1414.1
2015-Jun-27 14:33N 38°48' W 072°15'1414.3
2015-Jun-27 13:33N 38°57' W 072°30'1414.0
2015-Jun-27 12:33N 39°05' W 072°44'1414.0
2015-Jun-27 11:33N 39°14' W 072°59'1414.0
2015-Jun-27 10:34N 39°22' W 073°13'1414.1
2015-Jun-27 09:33N 39°31' W 073°27'1414.0
2015-Jun-27 08:33N 39°40' W 073°42'1312.7
2015-Jun-27 07:33N 39°50' W 073°51'1414.1
2015-Jun-27 06:33N 40°04' W 073°50'1414.1
2015-Jun-27 05:32N 40°19' W 073°49'1111.2
2015-Jun-27 04:33N 40°29' W 073°54'1211.8
2015-Jun-27 03:33N 40°38' W 074°03'4 4.4
2015-Jun-27 02:33N 40°41' W 074°08'1 0.7
2015-Jun-27 01:29N 40°42' W 074°08'0 0.0
2015-Jun-27 00:29N 40°42' W 074°08'0 0.0
2015-Jun-26 23:29N 40°42' W 074°08'0 0.0
2015-Jun-26 22:29N 40°42' W 074°08'0 0.0
2015-Jun-26 21:29N 40°42' W 074°08'0 0.0
2015-Jun-26 20:29N 40°42' W 074°08'0 0.0
2015-Jun-26 19:29N 40°42' W 074°08'0 0.0
2015-Jun-26 18:29N 40°42' W 074°08'0 0.0
2015-Jun-26 17:29N 40°42' W 074°08'0 0.0
2015-Jun-26 16:29N 40°42' W 074°08'2 1.6
2015-Jun-26 15:33N 40°40' W 074°08'5 4.6
2015-Jun-26 14:33N 40°38' W 074°03'1010.2
2015-Jun-26 13:33N 40°29' W 073°55'8 8.2
2015-Jun-26 12:33N 40°24' W 073°47'7 7.2
2015-Jun-26 11:32N 40°17' W 073°46'1616.7
2015-Jun-26 10:33N 40°00' W 073°43'1817.8
2015-Jun-26 09:33N 39°43' W 073°37'1715.8
2015-Jun-26 08:27N 39°26' W 073°39'8917.0
2015-Jun-26 03:14N 38°01' W 074°12'3 4.3
2015-Jun-26 02:33N 37°59' W 074°15'1818.3
2015-Jun-26 01:34N 37°41' W 074°20'1918.5
2015-Jun-26 00:33N 37°23' W 074°25'2118.2
2015-Jun-25 23:25N 37°02' W 074°25'169 5.8
2015-Jun-24 18:13N 34°27' W 075°47'1319.4
2015-Jun-24 17:32N 34°17' W 075°58'4318.7
2015-Jun-24 15:14N 33°46' W 076°34'1218.6
2015-Jun-24 14:33N 33°36' W 076°43'  

Dump ship's entire track history